sensor_id;sensor_type;location;lat;lon;timestamp;pressure;altitude;pressure_sealevel;temperature;humidity
21395;BME280;10858;42.714;23.180;2023-02-18T00:01:09;95127.44;;;3.82;57.46
21395;BME280;10858;42.714;23.180;2023-02-18T00:03:36;95125.13;;;3.76;58.17
21395;BME280;10858;42.714;23.180;2023-02-18T00:06:20;95118.50;;;3.86;57.68
21395;BME280;10858;42.714;23.180;2023-02-18T00:08:47;95115.72;;;3.72;58.16
21395;BME280;10858;42.714;23.180;2023-02-18T00:11:14;95115.88;;;3.69;58.14
21395;BME280;10858;42.714;23.180;2023-02-18T00:13:42;95112.53;;;3.48;58.62
21395;BME280;10858;42.714;23.180;2023-02-18T00:16:10;95104.44;;;3.53;58.76
21395;BME280;10858;42.714;23.180;2023-02-18T00:18:38;95107.34;;;3.29;59.62
21395;BME280;10858;42.714;23.180;2023-02-18T00:21:06;95095.63;;;3.01;61.35
21395;BME280;10858;42.714;23.180;2023-02-18T00:23:32;95088.53;;;3.03;61.66
21395;BME280;10858;42.714;23.180;2023-02-18T00:26:01;95087.06;;;2.97;62.03
21395;BME280;10858;42.714;23.180;2023-02-18T00:28:28;95075.91;;;3.11;61.69
21395;BME280;10858;42.714;23.180;2023-02-18T00:30:54;95078.38;;;3.32;60.57
21395;BME280;10858;42.714;23.180;2023-02-18T00:33:20;95084.50;;;3.31;61.02
21395;BME280;10858;42.714;23.180;2023-02-18T00:35:46;95073.50;;;3.42;60.47
21395;BME280;10858;42.714;23.180;2023-02-18T00:38:13;95067.41;;;3.41;60.03
21395;BME280;10858;42.714;23.180;2023-02-18T00:40:40;95070.56;;;3.48;59.77
21395;BME280;10858;42.714;23.180;2023-02-18T00:43:07;95066.19;;;3.49;59.87
21395;BME280;10858;42.714;23.180;2023-02-18T00:45:34;95074.03;;;3.66;59.75
21395;BME280;10858;42.714;23.180;2023-02-18T00:48:00;95064.09;;;3.72;59.98
21395;BME280;10858;42.714;23.180;2023-02-18T00:50:26;95061.09;;;3.63;59.64
21395;BME280;10858;42.714;23.180;2023-02-18T00:52:52;95063.66;;;4.62;56.08
21395;BME280;10858;42.714;23.180;2023-02-18T00:55:18;95053.81;;;4.66;56.90
21395;BME280;10858;42.714;23.180;2023-02-18T00:57:45;95056.03;;;4.89;55.96
21395;BME280;10858;42.714;23.180;2023-02-18T01:00:11;95056.88;;;4.89;55.27
21395;BME280;10858;42.714;23.180;2023-02-18T01:02:39;95059.00;;;4.83;55.62
21395;BME280;10858;42.714;23.180;2023-02-18T01:05:05;95071.63;;;4.61;55.97
21395;BME280;10858;42.714;23.180;2023-02-18T01:07:31;95058.22;;;4.50;56.26
21395;BME280;10858;42.714;23.180;2023-02-18T01:09:57;95062.13;;;4.43;56.82
21395;BME280;10858;42.714;23.180;2023-02-18T01:12:23;95056.88;;;4.58;56.21
21395;BME280;10858;42.714;23.180;2023-02-18T01:14:50;95066.84;;;4.36;57.11
21395;BME280;10858;42.714;23.180;2023-02-18T01:17:16;95072.28;;;4.16;56.96
21395;BME280;10858;42.714;23.180;2023-02-18T01:19:42;95058.72;;;3.91;57.34
21395;BME280;10858;42.714;23.180;2023-02-18T01:22:08;95057.94;;;3.56;58.50
21395;BME280;10858;42.714;23.180;2023-02-18T01:24:34;95058.75;;;3.22;59.94
21395;BME280;10858;42.714;23.180;2023-02-18T01:27:01;95058.75;;;3.22;60.33
21395;BME280;10858;42.714;23.180;2023-02-18T01:29:27;95061.84;;;3.47;59.86
21395;BME280;10858;42.714;23.180;2023-02-18T01:31:53;95054.16;;;3.44;60.21
21395;BME280;10858;42.714;23.180;2023-02-18T01:34:19;95056.75;;;3.27;60.67
21395;BME280;10858;42.714;23.180;2023-02-18T01:36:45;95049.94;;;3.06;61.50
21395;BME280;10858;42.714;23.180;2023-02-18T01:39:11;95054.59;;;3.35;60.87
21395;BME280;10858;42.714;23.180;2023-02-18T01:41:38;95057.13;;;3.37;60.61
21395;BME280;10858;42.714;23.180;2023-02-18T01:44:16;95059.16;;;3.32;60.82
21395;BME280;10858;42.714;23.180;2023-02-18T01:46:42;95061.69;;;3.33;61.00
21395;BME280;10858;42.714;23.180;2023-02-18T01:49:11;95067.94;;;3.31;60.93
21395;BME280;10858;42.714;23.180;2023-02-18T01:51:42;95065.38;;;3.29;61.22
21395;BME280;10858;42.714;23.180;2023-02-18T01:54:17;95070.19;;;3.38;60.91
21395;BME280;10858;42.714;23.180;2023-02-18T01:59:39;95072.50;;;3.44;60.68
21395;BME280;10858;42.714;23.180;2023-02-18T02:02:10;95073.28;;;3.47;60.78
21395;BME280;10858;42.714;23.180;2023-02-18T02:04:37;95082.91;;;3.63;60.60
21395;BME280;10858;42.714;23.180;2023-02-18T02:07:04;95074.03;;;3.66;60.38
21395;BME280;10858;42.714;23.180;2023-02-18T02:09:31;95067.41;;;3.76;60.20
21395;BME280;10858;42.714;23.180;2023-02-18T02:14:53;95073.72;;;3.89;59.55
21395;BME280;10858;42.714;23.180;2023-02-18T02:31:58;95072.63;;;3.93;58.67
21395;BME280;10858;42.714;23.180;2023-02-18T02:49:12;95057.38;;;3.50;60.77
21395;BME280;10858;42.714;23.180;2023-02-18T02:54:17;95051.44;;;3.46;61.14
21395;BME280;10858;42.714;23.180;2023-02-18T02:56:44;95060.63;;;3.37;61.28
21395;BME280;10858;42.714;23.180;2023-02-18T02:59:23;95060.78;;;3.52;60.80
21395;BME280;10858;42.714;23.180;2023-02-18T03:27:03;95082.91;;;3.63;60.34
21395;BME280;10858;42.714;23.180;2023-02-18T03:29:30;95094.56;;;3.58;60.52
21395;BME280;10858;42.714;23.180;2023-02-18T03:32:03;95100.44;;;3.80;59.64
21395;BME280;10858;42.714;23.180;2023-02-18T03:34:34;95110.13;;;4.12;58.31
21395;BME280;10858;42.714;23.180;2023-02-18T03:37:02;95112.53;;;3.65;60.37
21395;BME280;10858;42.714;23.180;2023-02-18T03:39:31;95114.31;;;3.47;60.87
21395;BME280;10858;42.714;23.180;2023-02-18T03:41:59;95111.50;;;3.33;61.10
21395;BME280;10858;42.714;23.180;2023-02-18T03:44:25;95100.38;;;3.64;60.15
21395;BME280;10858;42.714;23.180;2023-02-18T03:46:52;95114.78;;;3.90;59.38
21395;BME280;10858;42.714;23.180;2023-02-18T03:49:18;95118.56;;;4.01;59.08
21395;BME280;10858;42.714;23.180;2023-02-18T03:51:45;95123.72;;;4.20;58.36
21395;BME280;10858;42.714;23.180;2023-02-18T03:54:12;95119.50;;;4.33;58.17
21395;BME280;10858;42.714;23.180;2023-02-18T03:56:40;95128.38;;;4.48;57.19
21395;BME280;10858;42.714;23.180;2023-02-18T03:59:07;95124.31;;;4.58;56.78
21395;BME280;10858;42.714;23.180;2023-02-18T04:01:34;95123.75;;;4.68;56.47
21395;BME280;10858;42.714;23.180;2023-02-18T04:04:00;95118.94;;;4.76;56.14
21395;BME280;10858;42.714;23.180;2023-02-18T04:06:28;95119.09;;;4.73;56.32
21395;BME280;10858;42.714;23.180;2023-02-18T04:08:54;95110.97;;;4.78;56.21
21395;BME280;10858;42.714;23.180;2023-02-18T04:11:20;95118.84;;;4.62;56.50
21395;BME280;10858;42.714;23.180;2023-02-18T04:13:46;95107.03;;;4.54;56.71
21395;BME280;10858;42.714;23.180;2023-02-18T04:16:13;95111.56;;;4.35;57.37
21395;BME280;10858;42.714;23.180;2023-02-18T04:18:39;95107.72;;;4.24;57.90
21395;BME280;10858;42.714;23.180;2023-02-18T04:21:06;95109.97;;;4.15;58.11
21395;BME280;10858;42.714;23.180;2023-02-18T04:23:32;95099.31;;;4.18;57.95
21395;BME280;10858;42.714;23.180;2023-02-18T04:25:58;95098.69;;;4.13;58.04
21395;BME280;10858;42.714;23.180;2023-02-18T04:28:24;95086.59;;;4.10;58.29
21395;BME280;10858;42.714;23.180;2023-02-18T04:30:50;95086.41;;;4.13;58.25
21395;BME280;10858;42.714;23.180;2023-02-18T04:33:17;95092.84;;;4.08;58.22
21395;BME280;10858;42.714;23.180;2023-02-18T04:35:43;95089.59;;;4.03;58.35
21395;BME280;10858;42.714;23.180;2023-02-18T04:38:10;95092.53;;;4.14;58.14
21395;BME280;10858;42.714;23.180;2023-02-18T04:40:36;95097.09;;;4.10;58.11
21395;BME280;10858;42.714;23.180;2023-02-18T04:43:03;95096.06;;;4.13;58.05
21395;BME280;10858;42.714;23.180;2023-02-18T04:45:29;95089.91;;;3.97;58.34
21395;BME280;10858;42.714;23.180;2023-02-18T04:47:55;95088.81;;;4.01;58.25
21395;BME280;10858;42.714;23.180;2023-02-18T04:50:21;95093.06;;;4.03;58.36
21395;BME280;10858;42.714;23.180;2023-02-18T04:52:48;95091.00;;;4.10;58.53
21395;BME280;10858;42.714;23.180;2023-02-18T04:55:15;95092.88;;;4.23;58.06
21395;BME280;10858;42.714;23.180;2023-02-18T04:57:41;95095.63;;;4.38;57.56
21395;BME280;10858;42.714;23.180;2023-02-18T05:00:09;95091.25;;;4.54;56.55
21395;BME280;10858;42.714;23.180;2023-02-18T05:02:36;95107.03;;;4.54;56.68
21395;BME280;10858;42.714;23.180;2023-02-18T05:05:02;95106.78;;;4.58;56.30
21395;BME280;10858;42.714;23.180;2023-02-18T05:07:28;95115.19;;;4.65;56.67
21395;BME280;10858;42.714;23.180;2023-02-18T05:09:54;95112.69;;;4.94;55.86
21395;BME280;10858;42.714;23.180;2023-02-18T05:12:20;95113.34;;;4.82;56.10
21395;BME280;10858;42.714;23.180;2023-02-18T05:14:47;95093.75;;;4.88;56.08
21395;BME280;10858;42.714;23.180;2023-02-18T05:17:13;95085.19;;;4.84;55.78
21395;BME280;10858;42.714;23.180;2023-02-18T05:19:39;95067.47;;;5.03;55.72
21395;BME280;10858;42.714;23.180;2023-02-18T05:22:05;95058.03;;;5.31;54.71
21395;BME280;10858;42.714;23.180;2023-02-18T05:24:31;95069.63;;;5.72;53.67
21395;BME280;10858;42.714;23.180;2023-02-18T05:26:58;95068.78;;;5.87;52.62
21395;BME280;10858;42.714;23.180;2023-02-18T05:29:24;95087.63;;;6.09;52.39
21395;BME280;10858;42.714;23.180;2023-02-18T05:31:50;95082.06;;;6.14;52.31
21395;BME280;10858;42.714;23.180;2023-02-18T05:34:17;95085.34;;;5.89;53.30
21395;BME280;10858;42.714;23.180;2023-02-18T05:36:43;95086.31;;;6.16;52.34
21395;BME280;10858;42.714;23.180;2023-02-18T05:39:09;95080.59;;;6.24;51.93
21395;BME280;10858;42.714;23.180;2023-02-18T05:41:35;95091.34;;;6.35;51.46
21395;BME280;10858;42.714;23.180;2023-02-18T05:44:02;95097.84;;;6.29;50.81
21395;BME280;10858;42.714;23.180;2023-02-18T05:46:46;95090.69;;;5.72;52.60
21395;BME280;10858;42.714;23.180;2023-02-18T05:49:13;95095.84;;;5.73;53.31
21395;BME280;10858;42.714;23.180;2023-02-18T05:51:39;95098.84;;;5.83;53.09
21395;BME280;10858;42.714;23.180;2023-02-18T05:54:05;95095.88;;;5.89;52.94
21395;BME280;10858;42.714;23.180;2023-02-18T05:56:31;95106.25;;;6.06;52.59
21395;BME280;10858;42.714;23.180;2023-02-18T05:58:57;95114.06;;;6.22;51.48
21395;BME280;10858;42.714;23.180;2023-02-18T06:01:24;95102.53;;;6.38;50.60
21395;BME280;10858;42.714;23.180;2023-02-18T06:03:50;95104.81;;;6.72;49.76
21395;BME280;10858;42.714;23.180;2023-02-18T06:06:16;95102.53;;;6.95;49.22
21395;BME280;10858;42.714;23.180;2023-02-18T06:08:42;95096.28;;;7.10;49.35
21395;BME280;10858;42.714;23.180;2023-02-18T06:11:09;95093.94;;;7.05;49.47
21395;BME280;10858;42.714;23.180;2023-02-18T06:13:35;95096.88;;;7.01;49.98
21395;BME280;10858;42.714;23.180;2023-02-18T06:16:01;95088.19;;;7.13;49.93
21395;BME280;10858;42.714;23.180;2023-02-18T06:18:27;95098.25;;;7.73;48.18
21395;BME280;10858;42.714;23.180;2023-02-18T06:20:54;95101.06;;;7.97;47.89
21395;BME280;10858;42.714;23.180;2023-02-18T06:23:20;95092.25;;;8.23;47.58
21395;BME280;10858;42.714;23.180;2023-02-18T06:25:48;95092.38;;;8.34;46.65
21395;BME280;10858;42.714;23.180;2023-02-18T06:28:15;95096.44;;;8.01;46.18
21395;BME280;10858;42.714;23.180;2023-02-18T06:30:43;95090.25;;;7.88;46.87
21395;BME280;10858;42.714;23.180;2023-02-18T06:33:09;95092.44;;;8.20;46.97
21395;BME280;10858;42.714;23.180;2023-02-18T06:35:35;95101.84;;;8.24;46.97
21395;BME280;10858;42.714;23.180;2023-02-18T06:38:01;95083.75;;;8.18;46.98
21395;BME280;10858;42.714;23.180;2023-02-18T06:40:28;95098.78;;;8.05;46.47
21395;BME280;10858;42.714;23.180;2023-02-18T06:42:54;95098.22;;;8.39;46.67
21395;BME280;10858;42.714;23.180;2023-02-18T06:45:21;95098.19;;;8.27;47.29
21395;BME280;10858;42.714;23.180;2023-02-18T06:47:48;95098.81;;;8.30;47.04
21395;BME280;10858;42.714;23.180;2023-02-18T06:50:15;95092.41;;;8.60;46.22
21395;BME280;10858;42.714;23.180;2023-02-18T06:52:41;95093.66;;;8.79;46.61
21395;BME280;10858;42.714;23.180;2023-02-18T06:55:08;95079.53;;;9.04;43.75
21395;BME280;10858;42.714;23.180;2023-02-18T06:57:35;95078.47;;;9.66;41.50
21395;BME280;10858;42.714;23.180;2023-02-18T07:00:01;95080.97;;;10.04;40.73
21395;BME280;10858;42.714;23.180;2023-02-18T07:02:27;95091.53;;;10.27;40.86
21395;BME280;10858;42.714;23.180;2023-02-18T07:04:53;95085.13;;;9.95;42.60
21395;BME280;10858;42.714;23.180;2023-02-18T07:07:20;95090.31;;;9.73;42.34
21395;BME280;10858;42.714;23.180;2023-02-18T07:09:46;95087.31;;;9.54;42.42
21395;BME280;10858;42.714;23.180;2023-02-18T07:12:12;95072.69;;;9.61;42.20
21395;BME280;10858;42.714;23.180;2023-02-18T07:14:38;95072.06;;;9.81;41.54
21395;BME280;10858;42.714;23.180;2023-02-18T07:17:04;95072.00;;;9.70;41.66
21395;BME280;10858;42.714;23.180;2023-02-18T07:19:31;95064.84;;;9.83;42.64
21395;BME280;10858;42.714;23.180;2023-02-18T07:21:57;95067.63;;;9.82;41.89
21395;BME280;10858;42.714;23.180;2023-02-18T07:24:23;95072.66;;;9.85;42.40
21395;BME280;10858;42.714;23.180;2023-02-18T07:26:49;95074.84;;;10.14;42.07
21395;BME280;10858;42.714;23.180;2023-02-18T07:29:16;95065.28;;;10.47;41.13
21395;BME280;10858;42.714;23.180;2023-02-18T07:31:42;95067.53;;;10.86;41.61
21395;BME280;10858;42.714;23.180;2023-02-18T07:34:08;95083.66;;;11.49;38.65
21395;BME280;10858;42.714;23.180;2023-02-18T07:36:34;95082.81;;;11.27;39.60
21395;BME280;10858;42.714;23.180;2023-02-18T07:39:00;95076.44;;;11.40;39.34
21395;BME280;10858;42.714;23.180;2023-02-18T07:41:27;95085.34;;;11.39;38.49
21395;BME280;10858;42.714;23.180;2023-02-18T07:43:53;95083.94;;;11.02;40.29
21395;BME280;10858;42.714;23.180;2023-02-18T07:46:19;95081.03;;;11.27;38.77
21395;BME280;10858;42.714;23.180;2023-02-18T07:48:45;95091.38;;;11.41;39.01
21395;BME280;10858;42.714;23.180;2023-02-18T07:51:12;95093.53;;;11.69;37.89
21395;BME280;10858;42.714;23.180;2023-02-18T07:53:39;95092.56;;;11.70;38.18
21395;BME280;10858;42.714;23.180;2023-02-18T07:56:06;95094.03;;;12.06;37.34
21395;BME280;10858;42.714;23.180;2023-02-18T07:58:33;95090.13;;;12.42;36.56
21395;BME280;10858;42.714;23.180;2023-02-18T08:01:07;95091.69;;;12.44;36.67
21395;BME280;10858;42.714;23.180;2023-02-18T08:03:34;95094.00;;;12.38;37.07
21395;BME280;10858;42.714;23.180;2023-02-18T08:06:02;95090.13;;;12.42;36.48
21395;BME280;10858;42.714;23.180;2023-02-18T08:08:30;95092.66;;;12.43;36.74
21395;BME280;10858;42.714;23.180;2023-02-18T08:10:58;95100.19;;;12.07;37.14
21395;BME280;10858;42.714;23.180;2023-02-18T08:13:28;95085.13;;;12.28;37.28
21395;BME280;10858;42.714;23.180;2023-02-18T08:15:55;95092.00;;;12.51;36.72
21395;BME280;10858;42.714;23.180;2023-02-18T08:18:22;95081.97;;;12.23;36.68
21395;BME280;10858;42.714;23.180;2023-02-18T08:20:49;95079.78;;;12.28;35.51
21395;BME280;10858;42.714;23.180;2023-02-18T08:23:19;95069.97;;;12.90;34.21
21395;BME280;10858;42.714;23.180;2023-02-18T08:25:49;95064.94;;;12.66;35.99
21395;BME280;10858;42.714;23.180;2023-02-18T08:28:17;95056.88;;;12.16;36.82
21395;BME280;10858;42.714;23.180;2023-02-18T08:30:45;95049.50;;;12.40;36.75
21395;BME280;10858;42.714;23.180;2023-02-18T08:33:12;95031.53;;;12.83;34.35
21395;BME280;10858;42.714;23.180;2023-02-18T08:35:38;95042.34;;;13.12;32.59
21395;BME280;10858;42.714;23.180;2023-02-18T08:38:05;95047.28;;;13.65;31.66
21395;BME280;10858;42.714;23.180;2023-02-18T08:40:31;95042.69;;;13.96;31.06
21395;BME280;10858;42.714;23.180;2023-02-18T08:42:57;95035.22;;;14.57;30.56
21395;BME280;10858;42.714;23.180;2023-02-18T08:45:23;95048.25;;;15.25;29.87
21395;BME280;10858;42.714;23.180;2023-02-18T08:47:49;95056.59;;;15.50;29.50
21395;BME280;10858;42.714;23.180;2023-02-18T08:50:16;95057.31;;;15.79;28.05
21395;BME280;10858;42.714;23.180;2023-02-18T08:52:43;95056.09;;;15.91;27.87
21395;BME280;10858;42.714;23.180;2023-02-18T08:55:09;95052.38;;;15.57;28.32
21395;BME280;10858;42.714;23.180;2023-02-18T08:57:35;95052.13;;;16.30;27.96
21395;BME280;10858;42.714;23.180;2023-02-18T09:00:02;95051.97;;;16.14;27.91
21395;BME280;10858;42.714;23.180;2023-02-18T09:02:28;95060.19;;;15.85;27.61
21395;BME280;10858;42.714;23.180;2023-02-18T09:04:54;95064.31;;;16.07;28.02
21395;BME280;10858;42.714;23.180;2023-02-18T09:07:20;95067.88;;;15.98;28.28
21395;BME280;10858;42.714;23.180;2023-02-18T09:09:46;95067.28;;;16.74;27.23
21395;BME280;10858;42.714;23.180;2023-02-18T09:12:13;95058.88;;;16.34;28.00
21395;BME280;10858;42.714;23.180;2023-02-18T09:14:39;95055.56;;;16.40;26.77
21395;BME280;10858;42.714;23.180;2023-02-18T09:17:06;95055.91;;;16.55;27.77
21395;BME280;10858;42.714;23.180;2023-02-18T09:19:32;95061.34;;;16.45;27.29
21395;BME280;10858;42.714;23.180;2023-02-18T09:21:58;95057.75;;;17.23;27.35
21395;BME280;10858;42.714;23.180;2023-02-18T09:24:24;95047.56;;;17.01;25.95
21395;BME280;10858;42.714;23.180;2023-02-18T09:26:51;95038.19;;;17.64;26.75
21395;BME280;10858;42.714;23.180;2023-02-18T09:29:17;95035.31;;;18.24;25.11
21395;BME280;10858;42.714;23.180;2023-02-18T09:31:45;95033.31;;;19.14;24.95
21395;BME280;10858;42.714;23.180;2023-02-18T09:34:11;95035.03;;;20.09;22.66
21395;BME280;10858;42.714;23.180;2023-02-18T09:36:38;95045.72;;;19.86;22.98
21395;BME280;10858;42.714;23.180;2023-02-18T09:39:07;95029.22;;;20.96;21.95
21395;BME280;10858;42.714;23.180;2023-02-18T09:44:22;95039.28;;;20.57;21.65
21395;BME280;10858;42.714;23.180;2023-02-18T09:49:42;95046.16;;;21.56;20.74
21395;BME280;10858;42.714;23.180;2023-02-18T09:52:31;95034.34;;;20.83;21.08
21395;BME280;10858;42.714;23.180;2023-02-18T09:54:58;95035.66;;;19.41;22.63
21395;BME280;10858;42.714;23.180;2023-02-18T10:00:38;95024.13;;;19.72;23.52
21395;BME280;10858;42.714;23.180;2023-02-18T10:03:25;95026.28;;;20.07;21.74
21395;BME280;10858;42.714;23.180;2023-02-18T10:05:56;95020.72;;;19.78;21.84
21395;BME280;10858;42.714;23.180;2023-02-18T10:08:32;95014.56;;;21.13;21.09
21395;BME280;10858;42.714;23.180;2023-02-18T10:11:00;95014.69;;;20.97;21.29
21395;BME280;10858;42.714;23.180;2023-02-18T10:13:32;95006.59;;;21.63;21.37
21395;BME280;10858;42.714;23.180;2023-02-18T10:15:58;95014.22;;;21.16;21.23
21395;BME280;10858;42.714;23.180;2023-02-18T10:18:29;95020.56;;;19.71;22.08
21395;BME280;10858;42.714;23.180;2023-02-18T10:23:29;95023.59;;;20.07;22.38
21395;BME280;10858;42.714;23.180;2023-02-18T10:25:57;95026.09;;;20.08;22.47
21395;BME280;10858;42.714;23.180;2023-02-18T10:28:26;95006.03;;;20.19;22.30
21395;BME280;10858;42.714;23.180;2023-02-18T10:31:08;95009.03;;;19.55;23.36
21395;BME280;10858;42.714;23.180;2023-02-18T10:33:39;95008.59;;;19.35;23.99
21395;BME280;10858;42.714;23.180;2023-02-18T10:36:43;95012.97;;;19.28;24.75
21395;BME280;10858;42.714;23.180;2023-02-18T10:43:02;95005.03;;;19.81;24.57
21395;BME280;10858;42.714;23.180;2023-02-18T10:50:34;94991.78;;;20.56;23.23
21395;BME280;10858;42.714;23.180;2023-02-18T10:53:10;94994.97;;;20.59;22.64
21395;BME280;10858;42.714;23.180;2023-02-18T10:55:43;94999.91;;;19.94;23.76
21395;BME280;10858;42.714;23.180;2023-02-18T10:58:45;94985.16;;;18.56;25.41
21395;BME280;10858;42.714;23.180;2023-02-18T11:01:18;94981.09;;;18.12;25.94
21395;BME280;10858;42.714;23.180;2023-02-18T11:03:48;94983.28;;;18.17;26.87
21395;BME280;10858;42.714;23.180;2023-02-18T11:06:20;94985.81;;;18.83;25.44
21395;BME280;10858;42.714;23.180;2023-02-18T11:08:53;94979.97;;;18.63;25.52
21395;BME280;10858;42.714;23.180;2023-02-18T11:11:29;94968.63;;;17.79;26.76
21395;BME280;10858;42.714;23.180;2023-02-18T11:13:59;94968.63;;;17.79;26.05
21395;BME280;10858;42.714;23.180;2023-02-18T11:16:45;94958.94;;;17.44;26.44
21395;BME280;10858;42.714;23.180;2023-02-18T11:19:34;94972.53;;;16.83;27.65
21395;BME280;10858;42.714;23.180;2023-02-18T11:22:21;94956.56;;;16.48;28.52
21395;BME280;10858;42.714;23.180;2023-02-18T11:24:47;94953.66;;;16.85;28.25
21395;BME280;10858;42.714;23.180;2023-02-18T11:27:43;94943.09;;;17.67;27.10
21395;BME280;10858;42.714;23.180;2023-02-18T11:32:59;94921.31;;;17.86;27.85
21395;BME280;10858;42.714;23.180;2023-02-18T11:35:30;94917.81;;;17.86;27.49
21395;BME280;10858;42.714;23.180;2023-02-18T11:37:58;94916.28;;;17.67;27.78
21395;BME280;10858;42.714;23.180;2023-02-18T11:43:13;94930.75;;;18.46;27.22
21395;BME280;10858;42.714;23.180;2023-02-18T11:45:41;94917.13;;;18.64;27.16
21395;BME280;10858;42.714;23.180;2023-02-18T11:48:23;94917.44;;;18.77;26.87
21395;BME280;10858;42.714;23.180;2023-02-18T11:50:52;94913.72;;;18.86;26.67
21395;BME280;10858;42.714;23.180;2023-02-18T11:56:19;94908.78;;;19.14;26.74
21395;BME280;10858;42.714;23.180;2023-02-18T11:58:47;94902.13;;;19.71;25.44
21395;BME280;10858;42.714;23.180;2023-02-18T12:01:44;94891.94;;;19.81;26.07
21395;BME280;10858;42.714;23.180;2023-02-18T12:04:12;94885.72;;;18.64;27.38
21395;BME280;10858;42.714;23.180;2023-02-18T12:07:00;94887.75;;;19.17;26.79
21395;BME280;10858;42.714;23.180;2023-02-18T12:09:37;94882.31;;;19.33;25.93
21395;BME280;10858;42.714;23.180;2023-02-18T12:12:24;94889.22;;;19.28;26.01
21395;BME280;10858;42.714;23.180;2023-02-18T12:14:55;94881.44;;;19.41;25.90
21395;BME280;10858;42.714;23.180;2023-02-18T12:28:11;94873.88;;;19.36;26.33
21395;BME280;10858;42.714;23.180;2023-02-18T12:50:03;94829.75;;;19.15;26.29
21395;BME280;10858;42.714;23.180;2023-02-18T13:10:00;94828.59;;;20.30;25.14
21395;BME280;10858;42.714;23.180;2023-02-18T13:12:45;94829.09;;;20.34;24.79
21395;BME280;10858;42.714;23.180;2023-02-18T13:15:42;94834.03;;;19.85;25.21
21395;BME280;10858;42.714;23.180;2023-02-18T13:18:30;94837.50;;;19.94;25.34
21395;BME280;10858;42.714;23.180;2023-02-18T13:21:02;94836.06;;;19.83;25.59
21395;BME280;10858;42.714;23.180;2023-02-18T13:23:39;94842.44;;;19.29;26.31
21395;BME280;10858;42.714;23.180;2023-02-18T13:26:11;94833.66;;;19.43;25.87
21395;BME280;10858;42.714;23.180;2023-02-18T13:35:21;94841.19;;;18.70;27.16
21395;BME280;10858;42.714;23.180;2023-02-18T13:40:21;94838.34;;;18.72;27.68
21395;BME280;10858;42.714;23.180;2023-02-18T13:42:52;94838.53;;;18.54;28.02
21395;BME280;10858;42.714;23.180;2023-02-18T13:45:28;94842.44;;;18.51;28.66
21395;BME280;10858;42.714;23.180;2023-02-18T13:47:55;94838.09;;;17.94;30.83
21395;BME280;10858;42.714;23.180;2023-02-18T13:50:24;94836.09;;;17.88;30.31
21395;BME280;10858;42.714;23.180;2023-02-18T13:58:15;94826.31;;;17.39;31.46
21395;BME280;10858;42.714;23.180;2023-02-18T14:00:55;94827.91;;;17.08;31.99
21395;BME280;10858;42.714;23.180;2023-02-18T14:06:01;94821.13;;;16.71;32.51
21395;BME280;10858;42.714;23.180;2023-02-18T14:08:39;94820.56;;;16.34;32.55
21395;BME280;10858;42.714;23.180;2023-02-18T14:16:09;94835.22;;;16.22;33.45
21395;BME280;10858;42.714;23.180;2023-02-18T14:21:19;94829.75;;;16.32;33.84
21395;BME280;10858;42.714;23.180;2023-02-18T14:26:27;94818.25;;;16.39;33.29
21395;BME280;10858;42.714;23.180;2023-02-18T14:28:56;94827.00;;;16.24;34.18
21395;BME280;10858;42.714;23.180;2023-02-18T14:43:01;94824.19;;;16.25;34.77
21395;BME280;10858;42.714;23.180;2023-02-18T14:51:05;94834.13;;;16.66;34.22
21395;BME280;10858;42.714;23.180;2023-02-18T14:53:32;94827.94;;;16.40;34.35
21395;BME280;10858;42.714;23.180;2023-02-18T14:56:03;94821.72;;;16.57;33.67
21395;BME280;10858;42.714;23.180;2023-02-18T14:58:57;94813.66;;;16.49;34.28
21395;BME280;10858;42.714;23.180;2023-02-18T15:01:30;94823.13;;;16.18;34.65
21395;BME280;10858;42.714;23.180;2023-02-18T15:03:57;94809.59;;;15.94;34.66
21395;BME280;10858;42.714;23.180;2023-02-18T15:06:34;94810.91;;;15.64;35.47
21395;BME280;10858;42.714;23.180;2023-02-18T15:09:19;94816.00;;;15.40;36.48
21395;BME280;10858;42.714;23.180;2023-02-18T15:11:59;94818.84;;;15.21;37.06
21395;BME280;10858;42.714;23.180;2023-02-18T15:14:35;94823.53;;;15.09;37.23
21395;BME280;10858;42.714;23.180;2023-02-18T15:17:04;94821.41;;;14.95;37.45
21395;BME280;10858;42.714;23.180;2023-02-18T15:19:40;94822.72;;;14.64;38.30
21395;BME280;10858;42.714;23.180;2023-02-18T15:22:16;94819.19;;;14.64;38.19
21395;BME280;10858;42.714;23.180;2023-02-18T15:24:43;94819.66;;;14.59;38.17
21395;BME280;10858;42.714;23.180;2023-02-18T15:27:24;94819.41;;;14.53;38.58
21395;BME280;10858;42.714;23.180;2023-02-18T15:29:57;94808.97;;;14.32;39.13
21395;BME280;10858;42.714;23.180;2023-02-18T15:32:26;94812.09;;;14.18;39.19
21395;BME280;10858;42.714;23.180;2023-02-18T15:34:57;94809.19;;;14.02;40.03
21395;BME280;10858;42.714;23.180;2023-02-18T15:37:26;94808.81;;;13.87;40.10
21395;BME280;10858;42.714;23.180;2023-02-18T15:39:53;94812.47;;;13.86;40.16
21395;BME280;10858;42.714;23.180;2023-02-18T15:42:33;94796.69;;;13.46;41.32
21395;BME280;10858;42.714;23.180;2023-02-18T15:45:17;94795.44;;;13.41;41.43
21395;BME280;10858;42.714;23.180;2023-02-18T15:47:46;94789.72;;;13.26;41.55
21395;BME280;10858;42.714;23.180;2023-02-18T15:52:47;94780.59;;;13.19;41.53
21395;BME280;10858;42.714;23.180;2023-02-18T15:55:38;94783.81;;;13.13;41.76
21395;BME280;10858;42.714;23.180;2023-02-18T15:58:17;94789.38;;;12.91;42.08
21395;BME280;10858;42.714;23.180;2023-02-18T16:00:53;94782.19;;;12.53;43.01
21395;BME280;10858;42.714;23.180;2023-02-18T16:05:51;94774.06;;;11.96;44.99
21395;BME280;10858;42.714;23.180;2023-02-18T16:08:32;94783.16;;;11.73;45.47
21395;BME280;10858;42.714;23.180;2023-02-18T16:11:10;94783.00;;;11.44;46.24
21395;BME280;10858;42.714;23.180;2023-02-18T16:13:45;94788.69;;;11.19;46.70
21395;BME280;10858;42.714;23.180;2023-02-18T16:16:30;94785.50;;;11.04;47.15